createdAt,value
2023-02-18T00:01:25.428Z,7.67
2023-02-18T00:03:52.213Z,7.59
2023-02-18T00:06:23.307Z,7.50
2023-02-18T00:08:50.432Z,7.42
2023-02-18T00:11:18.344Z,7.36
2023-02-18T00:13:53.340Z,7.31
2023-02-18T00:16:21.159Z,7.28
2023-02-18T00:18:47.803Z,7.21
2023-02-18T00:21:14.463Z,7.18
2023-02-18T00:23:43.621Z,7.16
2023-02-18T00:26:13.192Z,7.14
2023-02-18T00:28:40.646Z,7.11
2023-02-18T00:31:09.068Z,7.11
2023-02-18T00:33:35.768Z,7.10
2023-02-18T00:36:08.541Z,7.09
2023-02-18T00:38:35.719Z,7.08
2023-02-18T00:41:02.543Z,7.07
2023-02-18T00:43:29.233Z,7.05
2023-02-18T00:45:55.631Z,7.03
2023-02-18T00:48:22.536Z,7.02
2023-02-18T00:50:48.879Z,7.01
2023-02-18T00:53:15.205Z,7.02
2023-02-18T00:55:43.459Z,7.02
2023-02-18T00:58:10.679Z,7.03
2023-02-18T01:00:37.708Z,7.07
2023-02-18T01:03:05.699Z,7.09
2023-02-18T01:05:32.313Z,7.07
2023-02-18T01:07:58.945Z,7.05
2023-02-18T01:10:25.446Z,7.03
2023-02-18T01:12:52.121Z,7.00
2023-02-18T01:15:18.847Z,6.98
2023-02-18T01:17:45.166Z,6.98
2023-02-18T01:20:13.233Z,6.96
2023-02-18T01:22:40.083Z,6.96
2023-02-18T01:25:07.934Z,6.96
2023-02-18T01:27:34.251Z,6.98
2023-02-18T01:30:02.431Z,6.99
2023-02-18T01:32:28.800Z,7.00
2023-02-18T01:34:55.068Z,7.00
2023-02-18T01:37:21.418Z,7.00
2023-02-18T01:39:47.851Z,7.01
2023-02-18T01:42:26.740Z,7.01
2023-02-18T01:44:53.786Z,7.00
2023-02-18T01:47:21.083Z,6.99
2023-02-18T01:49:52.076Z,6.99
2023-02-18T01:52:23.548Z,7.00
2023-02-18T01:54:54.931Z,7.02
2023-02-18T01:57:34.637Z,7.02
2023-02-18T02:00:07.486Z,7.03
2023-02-18T02:02:44.879Z,7.02
2023-02-18T02:05:12.145Z,7.01
2023-02-18T02:07:40.901Z,7.00
2023-02-18T02:10:10.303Z,7.00
2023-02-18T02:12:55.357Z,6.98
2023-02-18T02:15:25.519Z,6.97
2023-02-18T02:18:19.968Z,6.92
2023-02-18T02:21:09.237Z,6.86
2023-02-18T02:23:54.272Z,6.80
2023-02-18T02:26:49.450Z,6.75
2023-02-18T02:29:52.964Z,6.72
2023-02-18T02:32:40.363Z,6.71
2023-02-18T02:35:09.587Z,6.70
2023-02-18T02:37:47.688Z,6.70
2023-02-18T02:40:32.655Z,6.68
2023-02-18T02:43:25.537Z,6.65
2023-02-18T02:45:58.638Z,6.64
2023-02-18T02:48:36.386Z,6.75
2023-02-18T02:51:15.239Z,7.47
2023-02-18T02:53:43.077Z,8.03
2023-02-18T02:56:14.947Z,8.43
2023-02-18T02:58:42.704Z,8.63
2023-02-18T03:01:40.030Z,8.63
2023-02-18T03:04:31.410Z,8.75
2023-02-18T03:07:13.827Z,8.69
2023-02-18T03:10:09.377Z,8.75
2023-02-18T03:12:46.511Z,8.95
2023-02-18T03:15:22.581Z,8.97
2023-02-18T03:18:01.003Z,8.92
2023-02-18T03:20:39.007Z,8.84
2023-02-18T03:23:11.056Z,8.79
2023-02-18T03:25:38.918Z,8.65
2023-02-18T03:28:11.216Z,8.63
2023-02-18T03:30:43.961Z,8.59
2023-02-18T03:33:16.486Z,8.48
2023-02-18T03:35:45.000Z,8.49
2023-02-18T03:38:33.917Z,8.38
2023-02-18T03:41:03.964Z,8.10
2023-02-18T03:43:30.721Z,7.87
2023-02-18T03:45:58.118Z,7.72
2023-02-18T03:48:25.464Z,7.63
2023-02-18T03:50:51.899Z,7.58
2023-02-18T03:53:18.427Z,7.48
2023-02-18T03:55:45.042Z,7.34
2023-02-18T03:58:11.289Z,7.24
2023-02-18T04:00:37.607Z,7.17
2023-02-18T04:03:03.962Z,7.09
2023-02-18T04:05:30.566Z,6.98
2023-02-18T04:07:56.805Z,6.92
2023-02-18T04:10:23.152Z,6.80
2023-02-18T04:12:49.383Z,6.71
2023-02-18T04:15:15.919Z,7.01
2023-02-18T04:17:42.307Z,7.39
2023-02-18T04:20:09.151Z,7.55
2023-02-18T04:22:35.372Z,7.53
2023-02-18T04:25:01.653Z,7.49
2023-02-18T04:27:27.911Z,7.39
2023-02-18T04:29:54.395Z,7.27
2023-02-18T04:32:20.685Z,7.16
2023-02-18T04:34:47.035Z,6.96
2023-02-18T04:37:13.309Z,6.71
2023-02-18T04:39:39.641Z,6.52
2023-02-18T04:42:08.231Z,6.44
2023-02-18T04:44:36.560Z,6.37
2023-02-18T04:47:04.716Z,6.25
2023-02-18T04:49:31.144Z,6.17
2023-02-18T04:51:57.735Z,6.20
2023-02-18T04:54:23.986Z,6.10
2023-02-18T04:56:50.287Z,6.01
2023-02-18T04:59:16.817Z,5.97
2023-02-18T05:01:43.091Z,5.95
2023-02-18T05:04:09.479Z,5.92
2023-02-18T05:06:38.752Z,5.87
2023-02-18T05:09:06.094Z,5.80
2023-02-18T05:11:32.323Z,5.76
2023-02-18T05:13:58.579Z,5.75
2023-02-18T05:16:24.927Z,5.71
2023-02-18T05:18:51.405Z,5.68
2023-02-18T05:21:17.801Z,5.67
2023-02-18T05:23:44.157Z,5.66
2023-02-18T05:26:10.644Z,5.64
2023-02-18T05:28:37.216Z,5.61
2023-02-18T05:31:03.724Z,5.58
2023-02-18T05:33:30.002Z,5.55
2023-02-18T05:35:56.321Z,5.53
2023-02-18T05:38:23.061Z,5.52
2023-02-18T05:40:49.334Z,5.53
2023-02-18T05:43:15.726Z,5.56
2023-02-18T05:45:42.021Z,5.57
2023-02-18T05:48:08.601Z,5.59
2023-02-18T05:50:35.489Z,5.60
2023-02-18T05:53:01.845Z,5.60
2023-02-18T05:55:28.100Z,5.59
2023-02-18T05:57:54.501Z,5.57
2023-02-18T06:00:20.957Z,5.56
2023-02-18T06:02:47.447Z,5.57
2023-02-18T06:05:13.789Z,5.60
2023-02-18T06:07:40.120Z,5.64
2023-02-18T06:10:07.095Z,5.66
2023-02-18T06:12:33.424Z,5.68
2023-02-18T06:14:59.741Z,5.69
2023-02-18T06:17:26.174Z,5.70
2023-02-18T06:19:52.570Z,5.71
2023-02-18T06:22:18.920Z,5.71
2023-02-18T06:24:45.383Z,5.73
2023-02-18T06:27:11.717Z,5.75
2023-02-18T06:29:38.023Z,5.77
2023-02-18T06:32:04.681Z,5.78
2023-02-18T06:34:31.250Z,5.80
2023-02-18T06:36:57.465Z,5.83
2023-02-18T06:39:23.740Z,5.86
2023-02-18T06:41:49.990Z,5.88
2023-02-18T06:44:16.836Z,5.88
2023-02-18T06:46:44.088Z,5.90
2023-02-18T06:49:10.573Z,5.92
2023-02-18T06:51:36.909Z,5.94
2023-02-18T06:54:05.064Z,5.95
2023-02-18T06:56:31.577Z,5.97
2023-02-18T06:58:58.164Z,6.00
2023-02-18T07:01:24.474Z,6.02
2023-02-18T07:03:50.803Z,6.04
2023-02-18T07:06:17.231Z,6.07
2023-02-18T07:08:43.595Z,6.08
2023-02-18T07:11:09.846Z,6.09
2023-02-18T07:13:36.296Z,6.09
2023-02-18T07:16:02.646Z,6.10
2023-02-18T07:18:29.059Z,6.10
2023-02-18T07:20:55.363Z,6.10
2023-02-18T07:23:21.688Z,6.11
2023-02-18T07:25:47.955Z,6.11
2023-02-18T07:28:14.415Z,6.12
2023-02-18T07:30:40.717Z,6.11
2023-02-18T07:33:07.410Z,6.11
2023-02-18T07:35:33.776Z,6.11
2023-02-18T07:38:02.203Z,6.11
2023-02-18T07:40:28.673Z,6.11
2023-02-18T07:42:55.064Z,6.13
2023-02-18T07:45:21.475Z,6.15
2023-02-18T07:47:47.726Z,6.18
2023-02-18T07:50:14.042Z,6.24
2023-02-18T07:52:40.421Z,6.30
2023-02-18T07:55:07.287Z,6.33
2023-02-18T07:57:53.745Z,6.37
2023-02-18T08:00:20.373Z,6.41
2023-02-18T08:02:46.605Z,6.45
2023-02-18T08:05:12.923Z,6.50
2023-02-18T08:07:39.753Z,6.54
2023-02-18T08:10:06.732Z,6.59
2023-02-18T08:12:33.388Z,6.67
2023-02-18T08:14:59.696Z,6.74
2023-02-18T08:17:26.215Z,6.83
2023-02-18T08:19:52.800Z,6.92
2023-02-18T08:22:19.093Z,6.94
2023-02-18T08:24:45.461Z,6.92
2023-02-18T08:27:12.686Z,6.89
2023-02-18T08:29:38.966Z,6.89
2023-02-18T08:32:05.297Z,6.94
2023-02-18T08:34:31.804Z,7.03
2023-02-18T08:36:58.180Z,7.11
2023-02-18T08:39:24.553Z,7.15
2023-02-18T08:41:51.026Z,7.16
2023-02-18T08:44:20.109Z,7.14
2023-02-18T08:46:48.454Z,7.15
2023-02-18T08:49:14.744Z,7.14
2023-02-18T08:51:41.174Z,7.15
2023-02-18T08:54:07.426Z,7.22
2023-02-18T08:56:33.744Z,7.23
2023-02-18T08:59:00.124Z,7.17
2023-02-18T09:01:26.580Z,7.15
2023-02-18T09:03:53.311Z,7.13
2023-02-18T09:06:20.263Z,7.12
2023-02-18T09:08:47.276Z,7.11
2023-02-18T09:11:13.702Z,7.11
2023-02-18T09:13:40.552Z,7.11
2023-02-18T09:16:11.506Z,7.13
2023-02-18T09:18:38.304Z,7.24
2023-02-18T09:21:08.765Z,7.35
2023-02-18T09:23:35.997Z,7.40
2023-02-18T09:26:08.063Z,7.39
2023-02-18T09:28:35.807Z,7.37
2023-02-18T09:31:15.521Z,7.38
2023-02-18T09:33:46.143Z,7.38
2023-02-18T09:36:13.408Z,7.37
2023-02-18T09:38:40.300Z,7.37
2023-02-18T09:41:21.755Z,7.38
2023-02-18T09:43:51.473Z,7.37
2023-02-18T09:46:39.946Z,7.35
2023-02-18T09:49:14.915Z,7.33
2023-02-18T09:51:41.928Z,7.29
2023-02-18T09:54:15.113Z,7.25
2023-02-18T09:56:43.709Z,7.23
2023-02-18T09:59:17.761Z,7.23
2023-02-18T10:01:47.613Z,7.21
2023-02-18T10:04:18.594Z,7.18
2023-02-18T10:06:47.447Z,7.17
2023-02-18T10:09:34.789Z,7.18
2023-02-18T10:12:14.753Z,7.17
2023-02-18T10:14:43.749Z,7.14
2023-02-18T10:17:15.898Z,7.14
2023-02-18T10:19:45.351Z,7.14
2023-02-18T10:22:15.180Z,7.17
2023-02-18T10:24:58.820Z,7.19
2023-02-18T10:27:28.563Z,7.23
2023-02-18T10:30:32.311Z,7.28
2023-02-18T10:33:26.380Z,7.34
2023-02-18T10:36:00.284Z,7.37
2023-02-18T10:38:59.027Z,7.38
2023-02-18T10:41:36.721Z,7.36
2023-02-18T10:44:10.507Z,7.36
2023-02-18T10:46:55.699Z,7.37
2023-02-18T10:49:53.302Z,7.39
2023-02-18T10:52:20.453Z,7.41
2023-02-18T10:54:48.144Z,7.40
2023-02-18T10:57:23.172Z,7.40
2023-02-18T10:59:59.455Z,7.41
2023-02-18T11:02:30.954Z,7.43
2023-02-18T11:05:03.101Z,7.47
2023-02-18T11:07:34.078Z,7.52
2023-02-18T11:10:14.472Z,7.57
2023-02-18T11:13:00.336Z,7.58
2023-02-18T11:15:28.250Z,7.56
2023-02-18T11:18:13.021Z,7.53
2023-02-18T11:20:39.749Z,7.50
2023-02-18T11:23:05.956Z,7.50
2023-02-18T11:25:38.462Z,7.50
2023-02-18T11:28:22.485Z,7.49
2023-02-18T11:30:55.356Z,7.49
2023-02-18T11:33:39.458Z,7.49
2023-02-18T11:36:19.306Z,7.48
2023-02-18T11:38:58.252Z,7.48
2023-02-18T11:41:37.938Z,7.49
2023-02-18T11:44:07.133Z,7.52
2023-02-18T11:46:33.621Z,7.57
2023-02-18T11:49:21.831Z,7.66
2023-02-18T11:51:49.908Z,7.72
2023-02-18T11:54:29.963Z,7.73
2023-02-18T11:57:06.092Z,7.73
2023-02-18T11:59:35.646Z,7.72
2023-02-18T12:02:05.966Z,7.71
2023-02-18T12:04:47.734Z,7.73
2023-02-18T12:07:23.107Z,7.74
2023-02-18T12:09:54.280Z,7.74
2023-02-18T12:12:43.503Z,7.73
2023-02-18T12:15:17.739Z,7.70
2023-02-18T12:18:20.593Z,7.69
2023-02-18T12:21:22.133Z,7.70
2023-02-18T12:23:57.438Z,7.71
2023-02-18T12:27:11.538Z,7.71
2023-02-18T12:29:59.046Z,7.65
2023-02-18T12:32:34.485Z,7.60
2023-02-18T12:35:18.919Z,7.53
2023-02-18T12:38:33.399Z,7.47
2023-02-18T12:41:11.409Z,7.44
2023-02-18T12:44:07.517Z,7.43
2023-02-18T12:46:56.625Z,7.41
2023-02-18T12:49:44.096Z,7.43
2023-02-18T12:53:10.438Z,7.46
2023-02-18T12:56:03.910Z,7.49
2023-02-18T12:58:39.432Z,7.52
2023-02-18T13:01:24.609Z,7.53
2023-02-18T13:04:00.325Z,7.50
2023-02-18T13:06:45.268Z,7.48
2023-02-18T13:09:26.922Z,7.44
2023-02-18T13:11:59.195Z,7.41
2023-02-18T13:14:46.128Z,7.38
2023-02-18T13:29:55.269Z,7.27
2023-02-18T13:32:35.596Z,7.28
2023-02-18T13:35:17.207Z,7.27
2023-02-18T13:37:49.340Z,7.27
2023-02-18T13:40:26.950Z,7.26
2023-02-18T13:42:53.989Z,7.24
2023-02-18T13:45:31.136Z,7.23
2023-02-18T13:47:58.815Z,7.21
2023-02-18T13:50:31.594Z,7.18
2023-02-18T13:53:03.974Z,7.15
2023-02-18T13:56:04.542Z,7.12
2023-02-18T13:58:33.697Z,7.09
2023-02-18T14:01:17.639Z,7.08
2023-02-18T14:03:44.435Z,7.06
2023-02-18T14:06:23.164Z,7.04
2023-02-18T14:08:50.799Z,7.01
2023-02-18T14:11:17.152Z,6.99
2023-02-18T14:14:08.453Z,6.98
2023-02-18T14:17:13.217Z,6.96
2023-02-18T14:19:40.133Z,6.95
2023-02-18T14:22:25.453Z,6.95
2023-02-18T14:25:00.496Z,6.94
2023-02-18T14:27:26.904Z,6.93
2023-02-18T14:29:53.725Z,6.92
2023-02-18T14:32:21.016Z,6.91
2023-02-18T14:35:07.974Z,6.89
2023-02-18T14:38:02.515Z,6.88
2023-02-18T14:40:55.144Z,6.86
2023-02-18T14:43:43.006Z,6.84
2023-02-18T14:46:38.303Z,6.82
2023-02-18T14:49:16.412Z,6.79
2023-02-18T14:51:47.320Z,6.74
2023-02-18T14:54:17.911Z,6.73
2023-02-18T14:57:07.466Z,6.72
2023-02-18T14:59:39.148Z,6.68
2023-02-18T15:02:21.298Z,6.64
2023-02-18T15:04:49.927Z,6.60
2023-02-18T15:07:19.855Z,6.57
2023-02-18T15:09:52.983Z,6.54
2023-02-18T15:12:25.465Z,6.50
2023-02-18T15:14:53.927Z,6.45
2023-02-18T15:17:26.835Z,6.42
2023-02-18T15:19:56.522Z,6.38
2023-02-18T15:22:25.613Z,6.34
2023-02-18T15:24:54.558Z,6.31
2023-02-18T15:27:27.703Z,6.28
2023-02-18T15:30:18.721Z,6.25
2023-02-18T15:32:50.946Z,6.23
2023-02-18T15:35:20.368Z,6.19
2023-02-18T15:37:52.255Z,6.16
2023-02-18T15:40:21.928Z,6.14
2023-02-18T15:42:55.276Z,6.12
2023-02-18T15:45:25.530Z,6.10
2023-02-18T15:47:56.595Z,6.06
2023-02-18T15:50:37.028Z,6.02
2023-02-18T15:53:13.799Z,5.97
2023-02-18T15:55:46.710Z,5.93
2023-02-18T15:58:20.940Z,5.88
2023-02-18T16:00:56.812Z,5.84
2023-02-18T16:03:24.580Z,5.80
2023-02-18T16:06:07.660Z,5.74
2023-02-18T16:08:34.238Z,5.67
2023-02-18T16:11:04.202Z,5.60
2023-02-18T16:13:31.933Z,5.53
2023-02-18T16:16:00.998Z,5.46
2023-02-18T16:18:30.167Z,5.38
2023-02-18T16:21:18.242Z,5.31
2023-02-18T16:23:58.673Z,5.24
2023-02-18T16:26:41.147Z,5.15
2023-02-18T16:29:13.874Z,5.06
2023-02-18T16:31:41.716Z,4.96
2023-02-18T16:34:08.350Z,4.89
2023-02-18T16:36:34.886Z,4.82
2023-02-18T16:39:01.529Z,4.74
2023-02-18T16:41:28.681Z,4.66
2023-02-18T16:43:55.206Z,4.59
2023-02-18T16:46:23.141Z,4.54
2023-02-18T16:48:54.155Z,4.48
2023-02-18T16:51:25.870Z,4.44
2023-02-18T16:53:52.282Z,4.40
2023-02-18T16:56:24.833Z,4.37
2023-02-18T16:58:51.609Z,4.34
2023-02-18T17:01:44.064Z,4.30
2023-02-18T17:04:13.246Z,4.27
2023-02-18T17:06:44.341Z,4.24
2023-02-18T17:09:16.247Z,4.21
2023-02-18T17:11:44.674Z,4.17
2023-02-18T17:14:17.496Z,4.14
2023-02-18T17:16:45.355Z,4.11
2023-02-18T17:19:11.808Z,4.07
2023-02-18T17:21:38.480Z,4.05
2023-02-18T17:24:05.162Z,4.02
2023-02-18T17:42:35.417Z,3.75
2023-02-18T17:45:17.457Z,3.73
2023-02-18T17:47:45.198Z,3.70
2023-02-18T17:50:13.415Z,3.67
2023-02-18T17:52:41.527Z,3.65
2023-02-18T17:55:19.134Z,3.64
2023-02-18T17:57:47.620Z,3.63
2023-02-18T18:00:37.096Z,3.61
2023-02-18T18:03:05.555Z,3.60
2023-02-18T18:05:39.844Z,3.59
2023-02-18T18:08:08.736Z,3.57
2023-02-18T18:10:41.549Z,3.56
2023-02-18T18:13:17.945Z,3.55
2023-02-18T18:15:46.067Z,3.53
2023-02-18T18:18:14.857Z,3.50
2023-02-18T18:20:52.865Z,3.48
2023-02-18T18:23:25.177Z,3.46
2023-02-18T18:25:57.789Z,3.44
2023-02-18T18:28:26.817Z,3.42
2023-02-18T18:30:56.107Z,3.40
2023-02-18T18:33:27.543Z,3.39
2023-02-18T18:35:56.643Z,3.38
2023-02-18T18:38:26.860Z,3.37
2023-02-18T18:40:55.632Z,3.35
2023-02-18T18:43:32.574Z,3.33
2023-02-18T18:46:00.751Z,3.32
2023-02-18T18:48:28.724Z,3.30
2023-02-18T18:50:58.213Z,3.30
2023-02-18T18:53:29.808Z,3.29
2023-02-18T18:56:00.678Z,3.30
2023-02-18T18:58:28.437Z,3.30
2023-02-18T19:01:00.176Z,3.29
2023-02-18T19:03:29.441Z,3.29
2023-02-18T19:05:58.061Z,3.29
2023-02-18T19:08:26.049Z,3.28
2023-02-18T19:10:55.877Z,3.27
2023-02-18T19:13:32.025Z,3.26
2023-02-18T19:19:31.430Z,3.26
2023-02-18T19:21:59.100Z,3.25
2023-02-18T19:24:26.796Z,3.26
2023-02-18T19:26:54.551Z,3.27
2023-02-18T19:29:23.604Z,3.28
2023-02-18T19:31:51.644Z,3.27
2023-02-18T19:34:19.787Z,3.27
2023-02-18T19:36:48.206Z,3.28
2023-02-18T19:39:16.017Z,3.28
2023-02-18T19:41:44.024Z,3.29
2023-02-18T19:44:11.868Z,3.30
2023-02-18T19:46:39.673Z,3.29
2023-02-18T19:49:08.423Z,3.30
2023-02-18T19:51:36.320Z,3.30
2023-02-18T19:54:04.118Z,3.29
2023-02-18T19:56:31.846Z,3.29
2023-02-18T19:58:59.564Z,3.28
2023-02-18T20:01:27.508Z,3.27
2023-02-18T20:03:55.332Z,3.25
2023-02-18T20:06:23.815Z,3.24
2023-02-18T20:08:52.910Z,3.22
2023-02-18T20:11:23.079Z,3.21
2023-02-18T20:13:50.793Z,3.20
2023-02-18T20:16:18.747Z,3.19
2023-02-18T20:18:46.510Z,3.16
2023-02-18T20:21:14.351Z,3.13
2023-02-18T20:23:42.339Z,3.10
2023-02-18T20:26:11.749Z,3.07
2023-02-18T20:28:39.527Z,3.04
2023-02-18T20:31:11.171Z,3.02
2023-02-18T20:33:39.975Z,3.01
2023-02-18T20:36:08.664Z,3.01
2023-02-18T20:38:37.459Z,3.02
2023-02-18T20:41:05.402Z,3.03
2023-02-18T20:43:33.335Z,3.05
2023-02-18T20:46:07.273Z,3.07
2023-02-18T20:48:36.882Z,3.09
2023-02-18T20:51:13.564Z,3.12
2023-02-18T20:53:43.195Z,3.14
2023-02-18T20:56:10.948Z,3.16
2023-02-18T20:58:39.761Z,3.17
2023-02-18T21:01:11.221Z,3.18
2023-02-18T21:03:39.581Z,3.19
2023-02-18T21:06:10.123Z,3.21
2023-02-18T21:08:40.495Z,3.21
2023-02-18T21:11:12.202Z,3.22
2023-02-18T21:13:40.397Z,3.23
2023-02-18T21:16:09.861Z,3.23
2023-02-18T21:18:37.700Z,3.23
2023-02-18T21:21:08.359Z,3.24
2023-02-18T21:23:37.443Z,3.24
2023-02-18T21:26:11.172Z,3.25
2023-02-18T21:28:39.976Z,3.25
2023-02-18T21:31:20.224Z,3.25
2023-02-18T21:33:48.957Z,3.26
2023-02-18T21:36:19.027Z,3.26
2023-02-18T21:38:59.376Z,3.26
2023-02-18T21:41:29.902Z,3.27
2023-02-18T21:43:58.729Z,3.27
2023-02-18T21:46:29.493Z,3.28
2023-02-18T21:49:03.456Z,3.29
2023-02-18T21:51:57.211Z,3.30
2023-02-18T21:54:28.419Z,3.30
2023-02-18T21:56:57.301Z,3.30
2023-02-18T21:59:29.258Z,3.29
2023-02-18T22:02:01.287Z,3.30
2023-02-18T22:04:34.040Z,3.31
2023-02-18T22:07:04.394Z,3.29
2023-02-18T22:09:32.131Z,3.28
2023-02-18T22:11:59.942Z,3.24
2023-02-18T22:14:28.280Z,3.20
2023-02-18T22:16:56.434Z,3.16
2023-02-18T22:19:24.733Z,3.12
2023-02-18T22:21:52.551Z,3.10
2023-02-18T22:24:20.283Z,3.07
2023-02-18T22:26:48.928Z,3.04
2023-02-18T22:29:18.488Z,3.00
2023-02-18T22:31:47.280Z,2.94
2023-02-18T22:34:16.201Z,2.89
2023-02-18T22:36:43.859Z,2.84
2023-02-18T22:39:12.610Z,2.78
2023-02-18T22:41:40.269Z,2.73
2023-02-18T22:44:11.970Z,2.67
2023-02-18T22:46:39.925Z,2.62
2023-02-18T22:49:08.326Z,2.59
2023-02-18T22:51:39.153Z,2.55
2023-02-18T22:54:11.147Z,2.51
2023-02-18T22:56:39.221Z,2.48
2023-02-18T22:59:11.265Z,2.43
2023-02-18T23:01:41.257Z,2.38
2023-02-18T23:04:11.750Z,2.35
2023-02-18T23:06:43.390Z,2.31
2023-02-18T23:09:21.876Z,2.27
2023-02-18T23:11:53.149Z,2.23
2023-02-18T23:14:21.875Z,2.20
2023-02-18T23:17:13.562Z,2.21
2023-02-18T23:19:46.882Z,2.40
2023-02-18T23:22:18.757Z,2.54
2023-02-18T23:24:50.053Z,2.50
2023-02-18T23:27:17.884Z,2.42
2023-02-18T23:29:45.771Z,2.34
2023-02-18T23:32:14.061Z,2.28
2023-02-18T23:34:41.827Z,2.26
2023-02-18T23:37:11.395Z,2.25
2023-02-18T23:39:39.961Z,2.26
2023-02-18T23:42:08.768Z,2.28
2023-02-18T23:44:36.726Z,2.32
2023-02-18T23:47:04.579Z,2.36
2023-02-18T23:49:32.269Z,2.41
2023-02-18T23:52:00.348Z,2.46
2023-02-18T23:54:28.174Z,2.51
2023-02-18T23:56:55.931Z,2.56
2023-02-18T23:59:24.503Z,2.61
